Time;durP1;ratioP1;P1;durP2;ratioP2;P2;SDS_P1;SDS_P2;PMS_P1;PMS_P2;Temp;Humidity;BMP_temperature;BMP_pressure;BME280_temperature;BME280_humidity;BME280_pressure;Samples;Min_cycle;Max_cycle;Signal;HPM_P1;HPM_P2
2023/01/05 00:01:21;;;;;;;18.77;4.22;;;;;;;;;;5076454;28;20044;-75
2023/01/05 00:03:48;;;;;;;17.05;4.15;;;;;;;;;;5075696;28;20044;-74
2023/01/05 00:06:16;;;;;;;20.05;4.25;;;;;;;;;;5076346;28;20083;-75
2023/01/05 00:08:42;;;;;;;24.55;4.85;;;;;;;;;;5076456;28;20075;-74
2023/01/05 00:22:32;;;;;;;20.52;4.75;;;;;;;;;;5073166;28;20052;-75
2023/01/05 00:24:58;;;;;;;23.85;4.82;;;;;;;;;;5073998;28;20115;-75
2023/01/05 00:27:24;;;;;;;21.70;4.63;;;;;;;;;;5071008;28;20040;-75
2023/01/05 00:29:50;;;;;;;20.90;5.05;;;;;;;;;;5073010;28;20046;-75
2023/01/05 00:32:16;;;;;;;17.70;4.10;;;;;;;;;;5073341;28;20128;-75
2023/01/05 00:34:42;;;;;;;21.23;4.38;;;;;;;;;;5073670;28;20049;-75
2023/01/05 00:37:08;;;;;;;23.08;4.38;;;;;;;;;;5073704;28;20048;-75
2023/01/05 00:39:34;;;;;;;22.35;4.95;;;;;;;;;;5073437;28;20098;-75
2023/01/05 00:42:01;;;;;;;15.98;4.03;;;;;;;;;;5073594;28;20048;-75
2023/01/05 00:44:27;;;;;;;30.10;5.50;;;;;;;;;;5073807;28;20052;-75
2023/01/05 00:46:53;;;;;;;23.80;4.57;;;;;;;;;;5072192;28;20418;-75
2023/01/05 00:49:19;;;;;;;17.85;4.50;;;;;;;;;;5073244;28;20056;-75
2023/01/05 00:51:45;;;;;;;15.48;4.50;;;;;;;;;;5073487;28;20479;-75
2023/01/05 00:54:11;;;;;;;26.23;5.05;;;;;;;;;;5069769;28;20051;-75
2023/01/05 00:56:37;;;;;;;27.13;4.53;;;;;;;;;;5071363;28;20047;-75
2023/01/05 00:59:03;;;;;;;24.83;5.40;;;;;;;;;;5073305;28;20040;-75
2023/01/05 01:01:29;;;;;;;21.80;3.85;;;;;;;;;;5062977;28;20048;-75
2023/01/05 01:03:55;;;;;;;24.65;5.20;;;;;;;;;;5070004;28;20482;-76
2023/01/05 01:06:22;;;;;;;18.73;5.03;;;;;;;;;;5073615;28;20127;-76
2023/01/05 01:08:51;;;;;;;19.70;4.95;;;;;;;;;;5072347;28;20045;-75
2023/01/05 01:11:17;;;;;;;17.83;3.75;;;;;;;;;;5082558;28;20441;-76
2023/01/05 01:13:44;;;;;;;19.63;4.25;;;;;;;;;;5093168;28;20044;-76
2023/01/05 01:16:12;;;;;;;26.33;5.15;;;;;;;;;;5093703;28;20036;-76
2023/01/05 01:18:38;;;;;;;17.17;3.90;;;;;;;;;;5090168;28;20044;-76
2023/01/05 01:21:04;;;;;;;16.02;4.22;;;;;;;;;;5093337;28;20071;-76
2023/01/05 01:23:30;;;;;;;16.33;4.30;;;;;;;;;;5093611;28;20051;-76
2023/01/05 01:25:56;;;;;;;19.27;4.40;;;;;;;;;;5092740;28;20153;-76
2023/01/05 01:28:23;;;;;;;17.65;4.15;;;;;;;;;;5093193;28;20406;-76
2023/01/05 01:30:49;;;;;;;16.73;4.50;;;;;;;;;;5093265;28;20044;-76
2023/01/05 01:33:15;;;;;;;20.48;4.75;;;;;;;;;;5093265;28;20127;-76
2023/01/05 01:35:41;;;;;;;22.48;4.20;;;;;;;;;;5092448;28;20036;-76
2023/01/05 01:38:07;;;;;;;16.17;4.03;;;;;;;;;;5093346;28;20085;-76
2023/01/05 01:40:37;;;;;;;18.85;4.95;;;;;;;;;;5093079;28;20040;-76
2023/01/05 01:43:08;;;;;;;23.83;4.63;;;;;;;;;;5093147;28;20101;-76
2023/01/05 01:45:34;;;;;;;17.55;3.55;;;;;;;;;;5093403;28;20040;-76
2023/01/05 01:48:00;;;;;;;22.45;4.90;;;;;;;;;;5093165;28;20051;-76
2023/01/05 01:50:30;;;;;;;19.67;4.15;;;;;;;;;;5074323;28;20131;-76
2023/01/05 01:52:59;;;;;;;20.70;4.45;;;;;;;;;;5091600;28;20036;-76
2023/01/05 01:55:26;;;;;;;19.10;4.15;;;;;;;;;;5088257;28;20043;-76
2023/01/05 01:57:52;;;;;;;20.80;4.75;;;;;;;;;;5094427;28;20091;-76
2023/01/05 02:00:20;;;;;;;17.05;4.03;;;;;;;;;;5094106;28;20040;-76
2023/01/05 02:02:48;;;;;;;17.20;3.92;;;;;;;;;;5095587;28;20040;-76
2023/01/05 02:05:15;;;;;;;16.23;4.15;;;;;;;;;;5073629;28;20067;-76
2023/01/05 02:07:43;;;;;;;19.77;4.60;;;;;;;;;;5058838;28;20045;-76
2023/01/05 02:10:10;;;;;;;16.30;4.32;;;;;;;;;;5076176;28;20037;-76
2023/01/05 02:12:43;;;;;;;19.23;4.20;;;;;;;;;;5083696;28;20052;-76
2023/01/05 02:15:26;;;;;;;21.92;4.13;;;;;;;;;;5096618;28;20040;-76
2023/01/05 02:17:55;;;;;;;30.17;5.13;;;;;;;;;;5096734;28;20154;-76
2023/01/05 02:20:40;;;;;;;19.48;4.38;;;;;;;;;;5077806;28;20116;-76
2023/01/05 02:23:24;;;;;;;18.73;4.43;;;;;;;;;;5096600;28;20496;-76
2023/01/05 02:26:04;;;;;;;18.83;4.30;;;;;;;;;;5095768;28;20036;-76
2023/01/05 02:28:51;;;;;;;18.15;4.75;;;;;;;;;;5096365;28;20051;-76
2023/01/05 02:31:46;;;;;;;21.65;4.78;;;;;;;;;;5095431;28;20169;-76
2023/01/05 02:34:20;;;;;;;18.75;4.43;;;;;;;;;;5074256;28;20051;-76
2023/01/05 02:36:53;;;;;;;20.08;4.35;;;;;;;;;;5096739;28;20123;-76
2023/01/05 02:39:24;;;;;;;21.00;4.38;;;;;;;;;;5096108;28;20055;-76
2023/01/05 02:42:23;;;;;;;18.90;4.88;;;;;;;;;;5094750;28;20056;-76
2023/01/05 02:44:49;;;;;;;24.48;6.15;;;;;;;;;;5052719;28;20094;-76
2023/01/05 02:47:24;;;;;;;23.45;4.85;;;;;;;;;;5096944;28;20047;-76
2023/01/05 02:49:57;;;;;;;20.87;4.53;;;;;;;;;;5100908;28;20047;-76
2023/01/05 02:52:24;;;;;;;20.02;4.82;;;;;;;;;;5100071;28;20485;-76
2023/01/05 02:54:59;;;;;;;20.52;4.85;;;;;;;;;;5095589;28;20048;-76
2023/01/05 02:57:47;;;;;;;19.25;4.22;;;;;;;;;;5094880;28;20044;-76
2023/01/05 03:00:16;;;;;;;23.02;5.07;;;;;;;;;;5094576;28;20587;-76
2023/01/05 03:02:43;;;;;;;24.92;4.70;;;;;;;;;;5095778;28;20041;-76
2023/01/05 03:05:11;;;;;;;21.30;4.75;;;;;;;;;;5095857;28;20074;-76
2023/01/05 03:07:39;;;;;;;19.88;4.82;;;;;;;;;;5095853;28;20044;-76
2023/01/05 03:15:37;;;;;;;26.05;5.40;;;;;;;;;;5093541;28;20127;-76
2023/01/05 03:18:08;;;;;;;27.02;4.75;;;;;;;;;;5095771;28;20070;-76
2023/01/05 03:20:35;;;;;;;20.67;5.05;;;;;;;;;;5077072;28;20051;-76
2023/01/05 03:37:09;;;;;;;21.10;4.63;;;;;;;;;;5057292;28;20059;-76
2023/01/05 03:39:37;;;;;;;20.17;4.20;;;;;;;;;;5075080;28;20502;-76
2023/01/05 03:42:04;;;;;;;18.63;4.05;;;;;;;;;;5075963;28;20052;-76
2023/01/05 03:44:30;;;;;;;22.33;4.85;;;;;;;;;;5076798;28;20118;-76
2023/01/05 03:46:56;;;;;;;22.95;4.72;;;;;;;;;;5094524;28;20051;-76
2023/01/05 03:49:22;;;;;;;18.52;4.75;;;;;;;;;;5076919;28;20052;-76
2023/01/05 03:51:48;;;;;;;17.70;4.63;;;;;;;;;;5093459;28;20036;-76
2023/01/05 03:54:14;;;;;;;20.88;4.57;;;;;;;;;;5094958;28;20044;-76
2023/01/05 03:56:40;;;;;;;21.58;4.93;;;;;;;;;;5073191;28;20093;-76
2023/01/05 03:59:06;;;;;;;20.92;5.07;;;;;;;;;;5094353;28;20127;-76
2023/01/05 04:01:32;;;;;;;22.10;4.95;;;;;;;;;;5075737;28;20055;-76
2023/01/05 04:03:58;;;;;;;19.35;4.03;;;;;;;;;;5094188;28;20046;-76
2023/01/05 04:06:24;;;;;;;20.10;5.28;;;;;;;;;;5078056;28;20063;-76
2023/01/05 04:08:50;;;;;;;22.58;4.68;;;;;;;;;;5071342;28;20047;-76
2023/01/05 04:11:18;;;;;;;29.08;5.60;;;;;;;;;;5094055;28;20411;-76
2023/01/05 04:13:44;;;;;;;21.02;4.90;;;;;;;;;;5094261;28;20113;-76
2023/01/05 04:16:10;;;;;;;21.13;5.55;;;;;;;;;;5093747;28;20069;-76
2023/01/05 04:18:36;;;;;;;21.45;4.38;;;;;;;;;;5094607;28;20127;-76
2023/01/05 04:21:03;;;;;;;24.75;5.70;;;;;;;;;;5093725;28;20044;-76
2023/01/05 04:23:29;;;;;;;18.67;5.03;;;;;;;;;;5059450;28;20048;-76
2023/01/05 04:25:55;;;;;;;24.73;4.88;;;;;;;;;;5084444;28;20040;-76
2023/01/05 04:28:21;;;;;;;19.70;4.82;;;;;;;;;;5094037;28;20044;-76
2023/01/05 04:30:51;;;;;;;19.98;4.68;;;;;;;;;;5093900;28;20124;-76
2023/01/05 04:33:17;;;;;;;19.92;4.75;;;;;;;;;;5094166;28;20493;-76
2023/01/05 04:35:43;;;;;;;19.52;4.07;;;;;;;;;;5075792;28;20101;-76
2023/01/05 04:38:09;;;;;;;18.13;4.50;;;;;;;;;;5076023;28;20048;-76
2023/01/05 04:40:35;;;;;;;16.63;4.45;;;;;;;;;;5057178;28;20127;-76
2023/01/05 04:43:01;;;;;;;23.40;4.50;;;;;;;;;;5093121;28;20471;-76
2023/01/05 04:45:27;;;;;;;23.45;4.97;;;;;;;;;;5075650;28;20532;-76
2023/01/05 04:47:53;;;;;;;21.23;4.63;;;;;;;;;;5075984;28;20044;-76
2023/01/05 04:50:20;;;;;;;21.15;4.22;;;;;;;;;;5093719;28;20058;-76
2023/01/05 04:52:46;;;;;;;21.25;5.03;;;;;;;;;;5093652;28;20048;-76
2023/01/05 04:55:12;;;;;;;16.02;4.47;;;;;;;;;;5087198;28;20479;-76
2023/01/05 04:57:38;;;;;;;17.27;5.10;;;;;;;;;;5049693;28;20041;-76
2023/01/05 05:00:04;;;;;;;25.92;5.43;;;;;;;;;;5069356;28;20525;-76
2023/01/05 05:02:30;;;;;;;16.58;5.75;;;;;;;;;;5075753;28;20130;-76
2023/01/05 05:04:56;;;;;;;20.33;5.25;;;;;;;;;;5093289;28;20115;-76
2023/01/05 05:07:22;;;;;;;18.30;4.63;;;;;;;;;;5075870;28;20148;-75
2023/01/05 05:09:48;;;;;;;21.83;5.20;;;;;;;;;;5092888;28;20036;-76
2023/01/05 05:12:19;;;;;;;16.65;4.85;;;;;;;;;;5093211;28;20060;-76
2023/01/05 05:14:45;;;;;;;18.13;4.88;;;;;;;;;;5093679;28;20478;-76
2023/01/05 05:17:11;;;;;;;24.20;5.40;;;;;;;;;;5093905;28;20059;-76
2023/01/05 05:19:37;;;;;;;20.13;5.38;;;;;;;;;;5093189;28;20046;-76
2023/01/05 05:22:03;;;;;;;19.88;4.32;;;;;;;;;;5075256;28;20143;-76
2023/01/05 05:24:29;;;;;;;23.98;5.35;;;;;;;;;;5073908;28;20058;-76
2023/01/05 05:26:56;;;;;;;22.25;5.75;;;;;;;;;;5093751;28;20070;-76
2023/01/05 05:29:22;;;;;;;18.60;5.07;;;;;;;;;;5093332;28;20093;-76
2023/01/05 05:31:48;;;;;;;21.58;4.63;;;;;;;;;;5074540;28;20090;-76
2023/01/05 05:34:14;;;;;;;20.63;4.40;;;;;;;;;;5095605;28;20449;-76
2023/01/05 05:36:40;;;;;;;20.08;4.82;;;;;;;;;;5079442;28;20543;-76
2023/01/05 05:39:06;;;;;;;19.38;5.60;;;;;;;;;;5096969;28;20048;-76
2023/01/05 05:41:32;;;;;;;18.88;4.57;;;;;;;;;;5093241;28;20128;-76
2023/01/05 05:44:01;;;;;;;26.10;5.07;;;;;;;;;;5059305;28;20056;-76
2023/01/05 05:46:27;;;;;;;23.60;4.53;;;;;;;;;;5042436;28;20187;-76
2023/01/05 05:48:54;;;;;;;19.77;4.78;;;;;;;;;;5077022;28;20072;-76
2023/01/05 05:51:20;;;;;;;20.00;4.88;;;;;;;;;;5077024;28;20055;-76
2023/01/05 05:53:46;;;;;;;21.38;5.00;;;;;;;;;;5076906;28;20067;-76
2023/01/05 05:56:12;;;;;;;20.67;4.80;;;;;;;;;;5093955;28;20067;-76
2023/01/05 05:58:38;;;;;;;19.52;4.45;;;;;;;;;;5096683;28;20044;-76
2023/01/05 06:01:04;;;;;;;22.55;4.60;;;;;;;;;;5102082;28;20048;-76
2023/01/05 06:03:30;;;;;;;21.00;4.45;;;;;;;;;;5102537;28;20512;-76
2023/01/05 06:05:56;;;;;;;22.83;4.93;;;;;;;;;;5098353;28;20466;-76
2023/01/05 06:08:22;;;;;;;21.98;4.70;;;;;;;;;;5096331;28;20047;-76
2023/01/05 06:10:49;;;;;;;24.48;5.57;;;;;;;;;;5092927;28;20543;-76
2023/01/05 06:13:16;;;;;;;20.88;4.90;;;;;;;;;;5091999;28;20406;-76
2023/01/05 06:15:42;;;;;;;18.42;5.00;;;;;;;;;;5096993;28;20139;-76
2023/01/05 06:18:08;;;;;;;17.75;4.68;;;;;;;;;;5092567;28;20539;-76
2023/01/05 06:20:34;;;;;;;27.25;4.50;;;;;;;;;;5076295;28;20048;-76
2023/01/05 06:23:01;;;;;;;16.75;4.57;;;;;;;;;;5089346;28;20048;-76
2023/01/05 06:25:27;;;;;;;22.30;5.15;;;;;;;;;;5078387;28;20052;-76
2023/01/05 06:27:53;;;;;;;18.55;5.05;;;;;;;;;;5096079;28;20115;-76
2023/01/05 06:30:19;;;;;;;18.35;5.35;;;;;;;;;;5096487;28;20044;-76
2023/01/05 06:32:45;;;;;;;23.65;5.75;;;;;;;;;;5078653;28;20047;-77
2023/01/05 06:35:11;;;;;;;20.17;5.07;;;;;;;;;;5074768;28;20040;-76
2023/01/05 06:37:37;;;;;;;23.35;4.70;;;;;;;;;;5083600;28;20040;-76
2023/01/05 06:40:03;;;;;;;17.83;4.10;;;;;;;;;;5078600;28;20596;-76
2023/01/05 06:42:30;;;;;;;25.63;5.57;;;;;;;;;;5077960;28;20044;-76
2023/01/05 06:44:56;;;;;;;16.88;4.70;;;;;;;;;;5076986;28;20075;-76
2023/01/05 06:47:23;;;;;;;23.67;5.57;;;;;;;;;;5076940;28;20106;-76
2023/01/05 06:49:49;;;;;;;20.35;5.07;;;;;;;;;;5095811;28;20528;-76
2023/01/05 06:52:15;;;;;;;26.60;5.00;;;;;;;;;;5078267;28;20044;-76
2023/01/05 06:54:41;;;;;;;20.35;4.57;;;;;;;;;;5095982;28;20394;-76
2023/01/05 06:57:07;;;;;;;27.90;5.50;;;;;;;;;;5077921;28;20043;-76
2023/01/05 06:59:33;;;;;;;27.42;5.35;;;;;;;;;;5095640;28;20048;-76
2023/01/05 07:01:59;;;;;;;28.77;5.00;;;;;;;;;;5076687;28;20126;-76
2023/01/05 07:04:25;;;;;;;22.25;4.80;;;;;;;;;;5078455;28;20501;-76
2023/01/05 07:06:51;;;;;;;23.00;4.88;;;;;;;;;;5095284;28;20359;-76
2023/01/05 07:09:17;;;;;;;20.67;5.38;;;;;;;;;;5095695;28;20516;-76
2023/01/05 07:11:43;;;;;;;23.25;4.88;;;;;;;;;;5077260;28;20578;-76
2023/01/05 07:14:09;;;;;;;22.02;5.43;;;;;;;;;;5095448;28;20450;-76
2023/01/05 07:16:35;;;;;;;23.33;4.57;;;;;;;;;;5093853;28;20088;-76
2023/01/05 07:19:01;;;;;;;26.48;5.68;;;;;;;;;;5074243;28;20128;-76
2023/01/05 07:21:27;;;;;;;25.75;5.97;;;;;;;;;;5077142;28;20075;-76
2023/01/05 07:23:53;;;;;;;24.23;4.93;;;;;;;;;;5072627;28;20049;-76
2023/01/05 07:26:22;;;;;;;19.52;4.40;;;;;;;;;;5094831;28;20044;-76
2023/01/05 07:28:48;;;;;;;24.30;5.25;;;;;;;;;;5071106;28;20048;-76
2023/01/05 07:31:14;;;;;;;23.50;4.75;;;;;;;;;;5076641;28;20448;-76
2023/01/05 07:33:40;;;;;;;22.33;4.97;;;;;;;;;;5059515;28;20390;-75
2023/01/05 07:36:06;;;;;;;21.63;5.05;;;;;;;;;;5095318;28;20043;-76
2023/01/05 07:38:32;;;;;;;23.20;5.28;;;;;;;;;;5094979;28;20478;-75
2023/01/05 07:40:59;;;;;;;24.10;5.00;;;;;;;;;;5095412;28;20121;-76
2023/01/05 07:43:25;;;;;;;16.27;4.38;;;;;;;;;;5094309;28;20493;-76
2023/01/05 07:45:51;;;;;;;20.40;4.20;;;;;;;;;;5076942;28;20047;-76
2023/01/05 07:48:17;;;;;;;17.25;4.50;;;;;;;;;;5093852;28;20351;-76
2023/01/05 07:50:43;;;;;;;20.80;5.10;;;;;;;;;;5094694;28;20372;-76
2023/01/05 07:53:09;;;;;;;23.58;4.65;;;;;;;;;;5076305;28;20371;-76
2023/01/05 07:55:35;;;;;;;21.48;4.40;;;;;;;;;;5094021;28;20123;-76
2023/01/05 07:58:01;;;;;;;21.13;4.68;;;;;;;;;;5071816;28;20447;-76
2023/01/05 08:00:28;;;;;;;19.73;4.55;;;;;;;;;;5056631;28;20128;-76
2023/01/05 08:02:54;;;;;;;24.23;4.80;;;;;;;;;;5069105;28;20051;-76
2023/01/05 08:05:20;;;;;;;26.70;5.50;;;;;;;;;;5076413;28;20130;-76
2023/01/05 08:07:46;;;;;;;23.35;4.80;;;;;;;;;;5094782;28;20060;-76
2023/01/05 08:10:27;;;;;;;22.85;4.95;;;;;;;;;;5094468;28;20051;-76
2023/01/05 08:15:38;;;;;;;19.23;4.60;;;;;;;;;;5094569;28;20089;-75
2023/01/05 08:18:05;;;;;;;28.55;5.70;;;;;;;;;;5095020;28;20473;-76
2023/01/05 08:20:31;;;;;;;21.65;5.15;;;;;;;;;;5085618;28;20552;-76
2023/01/05 08:22:57;;;;;;;22.48;5.07;;;;;;;;;;5039654;28;20044;-75
2023/01/05 08:25:23;;;;;;;22.73;5.00;;;;;;;;;;5087366;28;20426;-76
2023/01/05 08:27:49;;;;;;;18.33;5.15;;;;;;;;;;5091698;28;20040;-76
2023/01/05 08:30:15;;;;;;;19.92;5.10;;;;;;;;;;5094941;28;20043;-80
2023/01/05 08:32:41;;;;;;;20.15;4.68;;;;;;;;;;5093789;28;20047;-80
2023/01/05 08:35:08;;;;;;;21.45;4.78;;;;;;;;;;5075492;28;20437;-77
2023/01/05 08:37:34;;;;;;;18.75;4.57;;;;;;;;;;5076854;28;20070;-79
2023/01/05 08:40:00;;;;;;;16.00;4.00;;;;;;;;;;5073841;28;20123;-77
2023/01/05 08:42:26;;;;;;;11.80;3.58;;;;;;;;;;5075925;28;20431;-77
2023/01/05 08:44:52;;;;;;;11.15;3.90;;;;;;;;;;5065949;28;20052;-78
2023/01/05 08:47:18;;;;;;;11.57;3.65;;;;;;;;;;5079314;28;20154;-78
2023/01/05 08:49:44;;;;;;;18.88;3.38;;;;;;;;;;5090436;28;20127;-78
2023/01/05 08:52:10;;;;;;;17.05;3.75;;;;;;;;;;5079559;28;20083;-79
2023/01/05 08:54:36;;;;;;;18.17;4.03;;;;;;;;;;5097758;28;20040;-78
2023/01/05 08:57:02;;;;;;;16.65;4.45;;;;;;;;;;5080240;28;20079;-79
2023/01/05 08:59:28;;;;;;;18.73;4.50;;;;;;;;;;5097727;28;20044;-80
2023/01/05 09:01:54;;;;;;;16.55;4.32;;;;;;;;;;5094200;28;20048;-78
2023/01/05 09:04:20;;;;;;;16.15;4.30;;;;;;;;;;5066006;28;20091;-78
2023/01/05 09:06:46;;;;;;;23.65;4.60;;;;;;;;;;5056157;28;20102;-79
2023/01/05 09:09:12;;;;;;;32.00;5.30;;;;;;;;;;5064239;28;20040;-78
2023/01/05 09:11:39;;;;;;;22.55;5.40;;;;;;;;;;5058632;28;20813;-80
2023/01/05 09:14:05;;;;;;;28.92;6.20;;;;;;;;;;5050423;28;20063;-79
2023/01/05 09:16:33;;;;;;;23.75;5.50;;;;;;;;;;5084959;28;20044;-81
2023/01/05 09:19:01;;;;;;;27.67;5.00;;;;;;;;;;5083199;28;20040;-78
2023/01/05 09:21:30;;;;;;;16.02;4.03;;;;;;;;;;5089840;28;20109;-78
2023/01/05 09:23:56;;;;;;;26.80;5.43;;;;;;;;;;5096766;28;20036;-78
2023/01/05 09:26:25;;;;;;;24.40;5.07;;;;;;;;;;5094346;28;20044;-78
2023/01/05 09:28:51;;;;;;;22.02;4.45;;;;;;;;;;5093908;28;20055;-79
2023/01/05 09:31:18;;;;;;;14.45;3.95;;;;;;;;;;5090427;28;20123;-78
2023/01/05 09:33:45;;;;;;;19.58;4.03;;;;;;;;;;5091784;28;20498;-79
2023/01/05 09:36:11;;;;;;;20.95;4.22;;;;;;;;;;5093414;28;20036;-78
2023/01/05 09:38:40;;;;;;;22.23;4.55;;;;;;;;;;5092889;28;20110;-78
2023/01/05 09:41:15;;;;;;;20.58;4.63;;;;;;;;;;5093700;28;20044;-78
2023/01/05 09:43:42;;;;;;;18.77;4.43;;;;;;;;;;5089960;28;20158;-78
2023/01/05 09:46:13;;;;;;;17.73;4.03;;;;;;;;;;5093153;28;20048;-78
2023/01/05 09:48:41;;;;;;;17.08;3.58;;;;;;;;;;5075789;28;20040;-78
2023/01/05 09:51:08;;;;;;;21.73;5.50;;;;;;;;;;5094033;28;20143;-79
2023/01/05 09:53:34;;;;;;;15.35;4.07;;;;;;;;;;5094044;28;20135;-78
2023/01/05 09:56:01;;;;;;;15.82;3.70;;;;;;;;;;5095505;28;20051;-78
2023/01/05 09:58:30;;;;;;;13.93;4.13;;;;;;;;;;5089702;28;20051;-78
2023/01/05 10:01:09;;;;;;;9.88;2.80;;;;;;;;;;5095486;28;20055;-77
2023/01/05 10:03:37;;;;;;;9.85;2.80;;;;;;;;;;5093363;28;20495;-79
2023/01/05 10:06:03;;;;;;;13.57;3.53;;;;;;;;;;5096679;28;20068;-78
2023/01/05 10:08:39;;;;;;;8.18;2.53;;;;;;;;;;5072057;28;20403;-79
2023/01/05 10:13:57;;;;;;;11.70;3.05;;;;;;;;;;5096771;28;20040;-83
2023/01/05 10:16:23;;;;;;;8.63;2.38;;;;;;;;;;5093622;28;20041;-78
2023/01/05 10:18:49;;;;;;;12.65;2.95;;;;;;;;;;5096779;28;20116;-78
2023/01/05 10:21:23;;;;;;;20.15;4.72;;;;;;;;;;5081895;28;20044;-78
2023/01/05 10:23:59;;;;;;;14.73;3.78;;;;;;;;;;5099947;28;20044;-78
2023/01/05 10:26:31;;;;;;;13.95;3.65;;;;;;;;;;5100382;28;20177;-78
2023/01/05 10:29:05;;;;;;;13.80;3.78;;;;;;;;;;5100543;28;20054;-78
2023/01/05 10:31:53;;;;;;;13.15;3.38;;;;;;;;;;5099935;28;20122;-78
2023/01/05 10:34:21;;;;;;;16.17;4.30;;;;;;;;;;5064463;28;20052;-80
2023/01/05 10:36:52;;;;;;;18.50;3.80;;;;;;;;;;5098550;28;20051;-83
2023/01/05 10:39:37;;;;;;;17.77;3.75;;;;;;;;;;5080566;28;20095;-79
2023/01/05 10:42:07;;;;;;;12.65;3.63;;;;;;;;;;5098586;28;20474;-79
2023/01/05 10:44:45;;;;;;;14.80;3.90;;;;;;;;;;5082136;28;20548;-79
2023/01/05 10:47:12;;;;;;;15.27;4.30;;;;;;;;;;5098111;28;20040;-79
2023/01/05 10:49:40;;;;;;;15.75;4.00;;;;;;;;;;5099808;28;20066;-79
2023/01/05 10:52:11;;;;;;;15.25;3.50;;;;;;;;;;5099337;28;20440;-78
2023/01/05 10:54:39;;;;;;;15.27;4.18;;;;;;;;;;5107521;28;20050;-78
2023/01/05 10:57:23;;;;;;;15.68;4.43;;;;;;;;;;5101788;28;20127;-78
2023/01/05 11:00:08;;;;;;;18.55;4.38;;;;;;;;;;5096560;28;20057;-82
2023/01/05 11:02:36;;;;;;;15.75;3.78;;;;;;;;;;5096296;28;20460;-79
2023/01/05 11:05:11;;;;;;;18.35;4.80;;;;;;;;;;5097221;28;20119;-79
2023/01/05 11:08:07;;;;;;;19.83;4.47;;;;;;;;;;5069224;28;20558;-78
2023/01/05 11:10:39;;;;;;;18.58;4.57;;;;;;;;;;5056632;28;20048;-78
2023/01/05 11:13:15;;;;;;;15.88;4.28;;;;;;;;;;5091913;28;20125;-79
2023/01/05 11:15:42;;;;;;;11.67;3.60;;;;;;;;;;5095403;28;20492;-78
2023/01/05 11:18:22;;;;;;;19.98;3.80;;;;;;;;;;5077287;28;20355;-78
2023/01/05 11:21:24;;;;;;;11.98;3.47;;;;;;;;;;5095616;28;20048;-78
2023/01/05 11:23:51;;;;;;;15.50;4.00;;;;;;;;;;4993962;28;20034;-78
2023/01/05 11:26:17;;;;;;;23.63;3.78;;;;;;;;;;4993953;28;20042;-78
2023/01/05 11:28:55;;;;;;;14.15;3.95;;;;;;;;;;4993826;28;20043;-78
2023/01/05 11:31:21;;;;;;;14.48;4.03;;;;;;;;;;4994633;28;20058;-80
2023/01/05 11:33:55;;;;;;;18.02;3.60;;;;;;;;;;5003341;28;20062;-79
2023/01/05 11:36:21;;;;;;;21.50;3.80;;;;;;;;;;4994531;28;20048;-79
2023/01/05 11:38:51;;;;;;;16.38;3.60;;;;;;;;;;4993381;28;20057;-79
2023/01/05 11:41:17;;;;;;;11.55;3.15;;;;;;;;;;4987643;28;20130;-79
2023/01/05 11:43:46;;;;;;;11.05;3.50;;;;;;;;;;4990225;28;20050;-79
2023/01/05 11:46:16;;;;;;;12.45;3.15;;;;;;;;;;4979443;28;20042;-81
2023/01/05 11:48:50;;;;;;;17.48;3.47;;;;;;;;;;4994788;28;20042;-78
2023/01/05 11:51:33;;;;;;;15.82;3.28;;;;;;;;;;4993143;28;20133;-78
2023/01/05 11:54:04;;;;;;;13.70;3.50;;;;;;;;;;4977139;28;20046;-79
2023/01/05 11:56:30;;;;;;;16.65;4.38;;;;;;;;;;4960502;28;20039;-78
2023/01/05 11:59:16;;;;;;;17.63;4.28;;;;;;;;;;5093048;28;20058;-79
2023/01/05 12:01:43;;;;;;;17.35;3.75;;;;;;;;;;5086740;28;20044;-78
2023/01/05 12:04:28;;;;;;;16.20;4.25;;;;;;;;;;5094139;28;20083;-78
2023/01/05 12:07:06;;;;;;;13.90;3.50;;;;;;;;;;5094138;28;20048;-78
2023/01/05 12:09:41;;;;;;;14.98;3.70;;;;;;;;;;5094427;28;20445;-78
2023/01/05 12:12:26;;;;;;;18.08;3.90;;;;;;;;;;5094127;28;20051;-78
2023/01/05 12:14:54;;;;;;;13.55;3.72;;;;;;;;;;5094659;28;20048;-78
2023/01/05 12:20:42;;;;;;;17.27;4.10;;;;;;;;;;5076090;28;20474;-81
2023/01/05 12:23:14;;;;;;;15.85;3.63;;;;;;;;;;5094481;28;20483;-78
2023/01/05 12:25:58;;;;;;;16.20;4.05;;;;;;;;;;5094275;28;20047;-78
2023/01/05 12:28:43;;;;;;;15.75;3.55;;;;;;;;;;5093755;28;20048;-78
2023/01/05 12:31:15;;;;;;;14.98;3.95;;;;;;;;;;5092651;28;20032;-78
2023/01/05 12:34:09;;;;;;;17.02;4.10;;;;;;;;;;5099937;28;20490;-78
2023/01/05 12:36:45;;;;;;;20.40;5.00;;;;;;;;;;5099106;28;20146;-78
2023/01/05 12:39:29;;;;;;;16.23;4.18;;;;;;;;;;5094339;28;20046;-78
2023/01/05 12:42:08;;;;;;;18.60;4.10;;;;;;;;;;5061434;28;20127;-78
2023/01/05 12:44:44;;;;;;;24.58;4.70;;;;;;;;;;5082699;28;20036;-78
2023/01/05 12:47:13;;;;;;;17.23;3.67;;;;;;;;;;5082452;28;20041;-78
2023/01/05 12:49:43;;;;;;;17.95;4.38;;;;;;;;;;5084926;28;20040;-78
2023/01/05 12:52:17;;;;;;;16.30;4.13;;;;;;;;;;5093807;28;20044;-78
2023/01/05 12:54:45;;;;;;;19.80;4.32;;;;;;;;;;5094367;28;20123;-77
2023/01/05 12:57:21;;;;;;;17.83;3.75;;;;;;;;;;5093934;28;20097;-77
2023/01/05 12:59:55;;;;;;;16.27;4.10;;;;;;;;;;5094772;28;20040;-77
2023/01/05 13:02:31;;;;;;;19.88;4.05;;;;;;;;;;5095077;28;20040;-77
2023/01/05 13:05:07;;;;;;;14.20;4.00;;;;;;;;;;5074749;28;20041;-77
2023/01/05 13:07:38;;;;;;;16.38;4.35;;;;;;;;;;5085112;28;20044;-77
2023/01/05 13:10:23;;;;;;;17.23;3.92;;;;;;;;;;5094208;28;20154;-83
2023/01/05 13:12:52;;;;;;;17.65;4.38;;;;;;;;;;5097636;28;20060;-80
2023/01/05 13:15:22;;;;;;;16.58;3.70;;;;;;;;;;5096462;28;20040;-79
2023/01/05 13:17:50;;;;;;;20.15;4.00;;;;;;;;;;5052753;28;20125;-78
2023/01/05 13:20:31;;;;;;;14.18;3.42;;;;;;;;;;5033999;28;20192;-78
2023/01/05 13:23:00;;;;;;;13.80;3.88;;;;;;;;;;5034359;28;20038;-78
2023/01/05 13:25:28;;;;;;;14.68;3.88;;;;;;;;;;5034391;28;20099;-78
2023/01/05 13:27:55;;;;;;;24.27;5.03;;;;;;;;;;5034489;28;20211;-78
2023/01/05 13:30:26;;;;;;;22.13;5.03;;;;;;;;;;5039911;28;20442;-78
2023/01/05 13:33:14;;;;;;;20.38;4.43;;;;;;;;;;5042880;28;20091;-78
2023/01/05 13:35:59;;;;;;;16.55;3.80;;;;;;;;;;5034332;28;20057;-78
2023/01/05 13:38:25;;;;;;;13.60;4.22;;;;;;;;;;5034181;28;20046;-78
2023/01/05 13:41:02;;;;;;;19.80;4.22;;;;;;;;;;5027457;28;20049;-79
2023/01/05 13:43:31;;;;;;;19.77;3.67;;;;;;;;;;5015280;28;20050;-79
2023/01/05 13:46:25;;;;;;;15.90;4.10;;;;;;;;;;5021141;28;20042;-79
2023/01/05 13:49:02;;;;;;;18.73;3.90;;;;;;;;;;5022898;28;20077;-79
2023/01/05 13:51:28;;;;;;;18.13;4.40;;;;;;;;;;5038116;28;20068;-79
2023/01/05 13:53:54;;;;;;;13.30;4.43;;;;;;;;;;5037989;28;20118;-78
2023/01/05 13:56:23;;;;;;;19.35;4.82;;;;;;;;;;5038305;28;20060;-79
2023/01/05 13:58:51;;;;;;;15.23;3.88;;;;;;;;;;5041382;28;20103;-79
2023/01/05 14:01:18;;;;;;;19.13;4.57;;;;;;;;;;5041703;28;20037;-79
2023/01/05 14:03:52;;;;;;;19.15;4.28;;;;;;;;;;5041551;28;20073;-79
2023/01/05 14:06:23;;;;;;;16.60;4.28;;;;;;;;;;5040227;28;20040;-77
2023/01/05 14:08:55;;;;;;;17.05;4.95;;;;;;;;;;5036790;28;20041;-78
2023/01/05 14:11:22;;;;;;;22.20;4.75;;;;;;;;;;5043688;28;20048;-78
2023/01/05 14:13:49;;;;;;;22.50;4.35;;;;;;;;;;5046415;28;20045;-78
2023/01/05 14:16:34;;;;;;;21.10;5.35;;;;;;;;;;5050174;28;20053;-78
2023/01/05 14:19:12;;;;;;;20.35;4.53;;;;;;;;;;5057077;28;20442;-78
2023/01/05 14:21:50;;;;;;;14.98;4.38;;;;;;;;;;5059734;28;20055;-79
2023/01/05 14:24:25;;;;;;;13.13;3.90;;;;;;;;;;5058821;28;20168;-79
2023/01/05 14:27:02;;;;;;;18.98;4.53;;;;;;;;;;5040020;28;20046;-77
2023/01/05 14:29:44;;;;;;;14.20;4.55;;;;;;;;;;5038759;28;20055;-80
2023/01/05 14:32:29;;;;;;;18.35;4.85;;;;;;;;;;5040768;28;20045;-81
2023/01/05 14:34:57;;;;;;;17.50;4.50;;;;;;;;;;5040858;28;20171;-81
2023/01/05 14:37:34;;;;;;;17.23;4.78;;;;;;;;;;5060169;28;20182;-80
2023/01/05 14:40:00;;;;;;;16.35;4.18;;;;;;;;;;5061622;28;20045;-81
2023/01/05 14:42:46;;;;;;;20.45;4.50;;;;;;;;;;5059099;28;20084;-80
2023/01/05 14:45:20;;;;;;;23.80;4.57;;;;;;;;;;5052784;28;20045;-80
2023/01/05 14:47:47;;;;;;;21.25;4.13;;;;;;;;;;5064921;28;20115;-80
2023/01/05 14:50:28;;;;;;;24.02;8.20;;;;;;;;;;5061880;28;20041;-80
2023/01/05 14:52:56;;;;;;;19.13;6.68;;;;;;;;;;5058867;28;20047;-82
2023/01/05 14:55:25;;;;;;;18.95;5.85;;;;;;;;;;5057729;28;20510;-80
2023/01/05 14:57:54;;;;;;;21.20;5.45;;;;;;;;;;5058491;28;20041;-80
2023/01/05 15:00:39;;;;;;;11.35;4.50;;;;;;;;;;5054891;28;20128;-81
2023/01/05 15:03:08;;;;;;;20.13;4.75;;;;;;;;;;5056410;28;20498;-78
2023/01/05 15:05:37;;;;;;;18.88;5.05;;;;;;;;;;5054467;28;20045;-78
2023/01/05 15:08:26;;;;;;;18.23;4.90;;;;;;;;;;5044308;28;20099;-77
2023/01/05 15:10:58;;;;;;;21.13;5.38;;;;;;;;;;5026450;28;20533;-78
2023/01/05 15:13:24;;;;;;;21.63;5.13;;;;;;;;;;5047191;28;20059;-78
2023/01/05 15:15:53;;;;;;;21.05;5.32;;;;;;;;;;5053981;28;20037;-78
2023/01/05 15:18:38;;;;;;;14.35;4.88;;;;;;;;;;5055070;28;20045;-78
2023/01/05 15:21:10;;;;;;;22.45;6.80;;;;;;;;;;5055620;28;20112;-80
2023/01/05 15:23:48;;;;;;;22.20;4.85;;;;;;;;;;5037419;28;20495;-77
2023/01/05 15:26:21;;;;;;;19.55;5.13;;;;;;;;;;5036877;28;20124;-81